sensor_id;sensor_type;location;lat;lon;timestamp;pressure;altitude;pressure_sealevel;temperature;humidity
4735;BME280;2381;50.676;12.612;2022-09-29T00:02:15;96042.97;;;5.97;100.00
4735;BME280;2381;50.676;12.612;2022-09-29T00:05:18;96033.94;;;6.00;100.00
4735;BME280;2381;50.676;12.612;2022-09-29T00:08:26;96027.97;;;5.85;100.00
4735;BME280;2381;50.676;12.612;2022-09-29T00:11:29;96031.22;;;5.87;100.00
4735;BME280;2381;50.676;12.612;2022-09-29T00:14:32;96037.44;;;5.86;100.00
4735;BME280;2381;50.676;12.612;2022-09-29T00:17:35;96037.81;;;5.83;100.00
4735;BME280;2381;50.676;12.612;2022-09-29T00:20:38;96051.50;;;5.85;100.00
4735;BME280;2381;50.676;12.612;2022-09-29T00:23:42;96048.06;;;5.70;100.00
4735;BME280;2381;50.676;12.612;2022-09-29T00:26:45;96048.00;;;5.63;100.00
4735;BME280;2381;50.676;12.612;2022-09-29T00:29:48;96050.72;;;5.41;100.00
4735;BME280;2381;50.676;12.612;2022-09-29T00:32:51;96058.22;;;5.44;100.00
4735;BME280;2381;50.676;12.612;2022-09-29T00:35:59;96074.41;;;5.54;100.00
4735;BME280;2381;50.676;12.612;2022-09-29T00:39:03;96087.19;;;5.49;100.00
4735;BME280;2381;50.676;12.612;2022-09-29T00:42:08;96099.88;;;5.52;100.00
4735;BME280;2381;50.676;12.612;2022-09-29T00:45:16;96112.19;;;5.58;100.00
4735;BME280;2381;50.676;12.612;2022-09-29T00:48:24;96124.72;;;5.62;100.00
4735;BME280;2381;50.676;12.612;2022-09-29T00:51:32;96136.31;;;5.60;100.00
4735;BME280;2381;50.676;12.612;2022-09-29T00:54:41;96146.97;;;5.58;100.00
4735;BME280;2381;50.676;12.612;2022-09-29T00:57:52;96162.72;;;5.65;100.00
4735;BME280;2381;50.676;12.612;2022-09-29T01:00:55;96166.56;;;5.69;100.00
4735;BME280;2381;50.676;12.612;2022-09-29T01:04:01;96175.81;;;5.79;100.00
4735;BME280;2381;50.676;12.612;2022-09-29T01:07:06;96190.00;;;5.77;100.00
4735;BME280;2381;50.676;12.612;2022-09-29T01:10:14;96194.09;;;5.79;100.00
4735;BME280;2381;50.676;12.612;2022-09-29T01:13:18;96210.56;;;5.80;100.00
4735;BME280;2381;50.676;12.612;2022-09-29T01:16:21;96211.84;;;5.84;100.00
4735;BME280;2381;50.676;12.612;2022-09-29T01:19:29;96216.69;;;5.87;100.00
4735;BME280;2381;50.676;12.612;2022-09-29T01:22:57;96224.78;;;5.92;100.00
4735;BME280;2381;50.676;12.612;2022-09-29T01:26:43;96240.09;;;5.95;100.00
4735;BME280;2381;50.676;12.612;2022-09-29T01:30:04;96241.44;;;6.05;100.00
4735;BME280;2381;50.676;12.612;2022-09-29T01:33:22;96253.97;;;6.10;100.00
4735;BME280;2381;50.676;12.612;2022-09-29T01:36:35;96256.94;;;6.21;100.00
4735;BME280;2381;50.676;12.612;2022-09-29T01:39:51;96259.66;;;6.13;100.00
4735;BME280;2381;50.676;12.612;2022-09-29T01:43:02;96262.09;;;6.15;100.00
4735;BME280;2381;50.676;12.612;2022-09-29T01:46:10;96259.19;;;6.10;100.00
4735;BME280;2381;50.676;12.612;2022-09-29T01:49:16;96259.72;;;6.20;100.00
4735;BME280;2381;50.676;12.612;2022-09-29T01:52:24;96265.31;;;6.17;100.00
4735;BME280;2381;50.676;12.612;2022-09-29T01:55:30;96266.41;;;6.08;100.00
4735;BME280;2381;50.676;12.612;2022-09-29T01:58:38;96255.50;;;6.04;100.00
4735;BME280;2381;50.676;12.612;2022-09-29T02:01:47;96255.03;;;6.01;100.00
4735;BME280;2381;50.676;12.612;2022-09-29T02:04:56;96255.41;;;5.98;100.00
4735;BME280;2381;50.676;12.612;2022-09-29T02:08:06;96257.94;;;6.06;100.00
4735;BME280;2381;50.676;12.612;2022-09-29T02:11:11;96261.09;;;6.01;100.00
4735;BME280;2381;50.676;12.612;2022-09-29T02:14:16;96255.25;;;6.14;100.00
4735;BME280;2381;50.676;12.612;2022-09-29T02:17:21;96253.88;;;6.03;100.00
4735;BME280;2381;50.676;12.612;2022-09-29T02:20:28;96260.00;;;5.96;100.00
4735;BME280;2381;50.676;12.612;2022-09-29T02:23:31;96242.44;;;5.90;100.00
4735;BME280;2381;50.676;12.612;2022-09-29T02:26:34;96253.25;;;5.87;100.00
4735;BME280;2381;50.676;12.612;2022-09-29T02:29:37;96245.13;;;5.82;100.00
4735;BME280;2381;50.676;12.612;2022-09-29T02:32:40;96250.91;;;5.92;100.00
4735;BME280;2381;50.676;12.612;2022-09-29T02:35:50;96248.41;;;5.84;100.00
4735;BME280;2381;50.676;12.612;2022-09-29T02:39:00;96258.56;;;5.93;100.00
4735;BME280;2381;50.676;12.612;2022-09-29T02:42:11;96259.41;;;5.94;100.00
4735;BME280;2381;50.676;12.612;2022-09-29T02:45:25;96253.25;;;6.01;100.00
4735;BME280;2381;50.676;12.612;2022-09-29T02:48:45;96246.50;;;5.92;100.00
4735;BME280;2381;50.676;12.612;2022-09-29T02:51:56;96253.34;;;5.93;100.00
4735;BME280;2381;50.676;12.612;2022-09-29T02:55:06;96241.28;;;5.92;100.00
4735;BME280;2381;50.676;12.612;2022-09-29T02:58:17;96248.94;;;5.94;100.00
4735;BME280;2381;50.676;12.612;2022-09-29T03:01:21;96251.56;;;5.94;100.00
4735;BME280;2381;50.676;12.612;2022-09-29T03:04:26;96250.19;;;5.83;100.00
4735;BME280;2381;50.676;12.612;2022-09-29T03:07:31;96248.66;;;5.89;100.00
4735;BME280;2381;50.676;12.612;2022-09-29T03:10:33;96249.94;;;5.93;100.00
4735;BME280;2381;50.676;12.612;2022-09-29T03:13:36;96252.34;;;5.94;100.00
4735;BME280;2381;50.676;12.612;2022-09-29T03:16:39;96256.66;;;5.87;100.00
4735;BME280;2381;50.676;12.612;2022-09-29T03:19:43;96250.03;;;5.85;100.00
4735;BME280;2381;50.676;12.612;2022-09-29T03:22:48;96248.41;;;5.84;100.00
4735;BME280;2381;50.676;12.612;2022-09-29T03:25:50;96256.50;;;5.89;100.00
4735;BME280;2381;50.676;12.612;2022-09-29T03:28:53;96250.72;;;5.79;100.00
4735;BME280;2381;50.676;12.612;2022-09-29T03:31:57;96259.84;;;5.83;100.00
4735;BME280;2381;50.676;12.612;2022-09-29T03:35:00;96257.06;;;5.76;100.00
4735;BME280;2381;50.676;12.612;2022-09-29T03:38:04;96269.97;;;5.78;100.00
4735;BME280;2381;50.676;12.612;2022-09-29T03:41:07;96279.28;;;5.80;100.00
4735;BME280;2381;50.676;12.612;2022-09-29T03:44:10;96280.38;;;5.86;100.00
4735;BME280;2381;50.676;12.612;2022-09-29T03:47:13;96281.00;;;5.88;100.00
4735;BME280;2381;50.676;12.612;2022-09-29T03:50:16;96287.94;;;5.95;100.00
4735;BME280;2381;50.676;12.612;2022-09-29T03:53:20;96292.38;;;5.95;100.00
4735;BME280;2381;50.676;12.612;2022-09-29T03:56:24;96297.22;;;5.98;100.00
4735;BME280;2381;50.676;12.612;2022-09-29T03:59:27;96293.44;;;6.00;100.00
4735;BME280;2381;50.676;12.612;2022-09-29T04:02:30;96299.66;;;5.99;100.00
4735;BME280;2381;50.676;12.612;2022-09-29T04:05:35;96296.06;;;6.00;100.00
4735;BME280;2381;50.676;12.612;2022-09-29T04:08:40;96285.06;;;6.05;100.00
4735;BME280;2381;50.676;12.612;2022-09-29T04:11:43;96293.25;;;6.02;100.00
4735;BME280;2381;50.676;12.612;2022-09-29T04:14:46;96298.03;;;6.13;100.00
4735;BME280;2381;50.676;12.612;2022-09-29T04:17:49;96287.84;;;6.18;100.00
4735;BME280;2381;50.676;12.612;2022-09-29T04:20:52;96296.59;;;6.25;100.00
4735;BME280;2381;50.676;12.612;2022-09-29T04:23:57;96297.84;;;6.29;100.00
4735;BME280;2381;50.676;12.612;2022-09-29T04:27:00;96293.16;;;6.24;100.00
4735;BME280;2381;50.676;12.612;2022-09-29T04:30:10;96290.28;;;6.19;100.00
4735;BME280;2381;50.676;12.612;2022-09-29T04:33:13;96289.84;;;6.16;100.00
4735;BME280;2381;50.676;12.612;2022-09-29T04:36:16;96293.72;;;6.20;100.00
4735;BME280;2381;50.676;12.612;2022-09-29T04:39:21;96286.94;;;6.11;100.00
4735;BME280;2381;50.676;12.612;2022-09-29T04:42:24;96286.50;;;6.07;100.00
4735;BME280;2381;50.676;12.612;2022-09-29T04:45:27;96287.22;;;6.16;100.00
4735;BME280;2381;50.676;12.612;2022-09-29T04:48:30;96282.78;;;6.02;100.00
4735;BME280;2381;50.676;12.612;2022-09-29T04:51:36;96287.69;;;6.05;100.00
4735;BME280;2381;50.676;12.612;2022-09-29T04:54:41;96292.91;;;6.05;100.00
4735;BME280;2381;50.676;12.612;2022-09-29T04:57:44;96296.50;;;6.04;100.00
4735;BME280;2381;50.676;12.612;2022-09-29T05:00:49;96299.66;;;6.14;100.00
4735;BME280;2381;50.676;12.612;2022-09-29T05:03:52;96307.16;;;6.17;100.00
4735;BME280;2381;50.676;12.612;2022-09-29T05:06:55;96313.69;;;6.27;100.00
4735;BME280;2381;50.676;12.612;2022-09-29T05:09:59;96322.47;;;6.20;100.00
4735;BME280;2381;50.676;12.612;2022-09-29T05:13:03;96320.47;;;6.22;100.00
4735;BME280;2381;50.676;12.612;2022-09-29T05:16:06;96323.53;;;6.25;100.00
4735;BME280;2381;50.676;12.612;2022-09-29T05:19:09;96328.13;;;6.23;100.00
4735;BME280;2381;50.676;12.612;2022-09-29T05:22:12;96324.91;;;6.36;100.00
4735;BME280;2381;50.676;12.612;2022-09-29T05:25:17;96332.38;;;6.39;100.00
4735;BME280;2381;50.676;12.612;2022-09-29T05:28:20;96334.28;;;6.45;100.00
4735;BME280;2381;50.676;12.612;2022-09-29T05:31:23;96341.84;;;6.40;100.00
4735;BME280;2381;50.676;12.612;2022-09-29T05:34:26;96345.00;;;6.35;100.00
4735;BME280;2381;50.676;12.612;2022-09-29T05:37:29;96342.84;;;6.39;100.00
4735;BME280;2381;50.676;12.612;2022-09-29T05:40:34;96334.38;;;6.37;100.00
4735;BME280;2381;50.676;12.612;2022-09-29T05:43:38;96347.34;;;6.45;100.00
4735;BME280;2381;50.676;12.612;2022-09-29T05:46:42;96340.13;;;6.47;100.00
4735;BME280;2381;50.676;12.612;2022-09-29T05:49:45;96352.91;;;6.42;100.00
4735;BME280;2381;50.676;12.612;2022-09-29T05:52:48;96349.75;;;6.46;100.00
4735;BME280;2381;50.676;12.612;2022-09-29T05:55:55;96348.97;;;6.31;100.00
4735;BME280;2381;50.676;12.612;2022-09-29T05:58:58;96358.53;;;6.39;100.00
4735;BME280;2381;50.676;12.612;2022-09-29T06:02:02;96351.31;;;6.41;100.00
4735;BME280;2381;50.676;12.612;2022-09-29T06:05:05;96365.00;;;6.43;100.00
4735;BME280;2381;50.676;12.612;2022-09-29T06:08:08;96377.63;;;6.54;100.00
4735;BME280;2381;50.676;12.612;2022-09-29T06:11:15;96374.28;;;6.60;100.00
4735;BME280;2381;50.676;12.612;2022-09-29T06:19:00;96388.63;;;6.64;100.00
4735;BME280;2381;50.676;12.612;2022-09-29T06:22:03;96393.44;;;6.60;100.00
4735;BME280;2381;50.676;12.612;2022-09-29T06:25:07;96406.59;;;6.67;100.00
4735;BME280;2381;50.676;12.612;2022-09-29T06:28:11;96404.06;;;6.73;100.00
4735;BME280;2381;50.676;12.612;2022-09-29T06:31:15;96409.75;;;6.77;100.00
4735;BME280;2381;50.676;12.612;2022-09-29T06:34:19;96415.84;;;6.84;100.00
4735;BME280;2381;50.676;12.612;2022-09-29T06:37:22;96418.13;;;6.87;100.00
4735;BME280;2381;50.676;12.612;2022-09-29T06:40:36;96422.91;;;6.98;100.00
4735;BME280;2381;50.676;12.612;2022-09-29T06:43:40;96417.28;;;7.01;100.00
4735;BME280;2381;50.676;12.612;2022-09-29T06:46:43;96418.91;;;7.02;100.00
4735;BME280;2381;50.676;12.612;2022-09-29T06:49:48;96422.41;;;7.09;100.00
4735;BME280;2381;50.676;12.612;2022-09-29T06:53:03;96431.81;;;7.18;100.00
4735;BME280;2381;50.676;12.612;2022-09-29T06:56:07;96434.75;;;7.15;100.00
4735;BME280;2381;50.676;12.612;2022-09-29T06:59:12;96441.91;;;7.21;100.00
4735;BME280;2381;50.676;12.612;2022-09-29T07:02:15;96440.09;;;7.21;100.00
4735;BME280;2381;50.676;12.612;2022-09-29T07:05:19;96438.28;;;7.22;100.00
4735;BME280;2381;50.676;12.612;2022-09-29T07:08:22;96436.91;;;7.26;100.00
4735;BME280;2381;50.676;12.612;2022-09-29T07:11:26;96447.66;;;7.31;100.00
4735;BME280;2381;50.676;12.612;2022-09-29T07:14:30;96442.59;;;7.29;100.00
4735;BME280;2381;50.676;12.612;2022-09-29T07:17:33;96447.28;;;7.34;100.00
4735;BME280;2381;50.676;12.612;2022-09-29T07:20:36;96445.09;;;7.37;100.00
4735;BME280;2381;50.676;12.612;2022-09-29T07:23:40;96451.78;;;7.40;100.00
4735;BME280;2381;50.676;12.612;2022-09-29T07:26:43;96464.13;;;7.46;100.00
4735;BME280;2381;50.676;12.612;2022-09-29T07:29:48;96458.88;;;7.46;100.00
4735;BME280;2381;50.676;12.612;2022-09-29T07:33:04;96459.41;;;7.55;100.00
4735;BME280;2381;50.676;12.612;2022-09-29T07:36:07;96470.25;;;7.53;100.00
4735;BME280;2381;50.676;12.612;2022-09-29T07:39:10;96472.34;;;7.57;100.00
4735;BME280;2381;50.676;12.612;2022-09-29T07:42:13;96484.50;;;7.64;100.00
4735;BME280;2381;50.676;12.612;2022-09-29T07:45:17;96480.16;;;7.71;100.00
4735;BME280;2381;50.676;12.612;2022-09-29T07:48:20;96482.84;;;7.78;100.00
4735;BME280;2381;50.676;12.612;2022-09-29T07:51:23;96488.53;;;7.81;100.00
4735;BME280;2381;50.676;12.612;2022-09-29T07:54:26;96484.53;;;7.85;100.00
4735;BME280;2381;50.676;12.612;2022-09-29T07:57:30;96485.41;;;7.92;100.00
4735;BME280;2381;50.676;12.612;2022-09-29T08:00:34;96484.47;;;8.00;100.00
4735;BME280;2381;50.676;12.612;2022-09-29T08:03:38;96488.78;;;8.07;100.00
4735;BME280;2381;50.676;12.612;2022-09-29T08:06:41;96496.59;;;8.22;100.00
4735;BME280;2381;50.676;12.612;2022-09-29T08:09:44;96500.28;;;8.27;100.00
4735;BME280;2381;50.676;12.612;2022-09-29T08:12:48;96503.34;;;8.31;100.00
4735;BME280;2381;50.676;12.612;2022-09-29T08:15:57;96492.41;;;8.48;100.00
4735;BME280;2381;50.676;12.612;2022-09-29T08:19:01;96497.38;;;8.64;100.00
4735;BME280;2381;50.676;12.612;2022-09-29T08:22:05;96488.09;;;8.68;100.00
4735;BME280;2381;50.676;12.612;2022-09-29T08:25:08;96477.50;;;8.83;100.00
4735;BME280;2381;50.676;12.612;2022-09-29T08:28:11;96466.72;;;9.05;100.00
4735;BME280;2381;50.676;12.612;2022-09-29T08:31:28;96460.97;;;9.29;100.00
4735;BME280;2381;50.676;12.612;2022-09-29T08:34:31;96432.13;;;9.36;100.00
4735;BME280;2381;50.676;12.612;2022-09-29T08:37:34;96391.47;;;9.38;100.00
4735;BME280;2381;50.676;12.612;2022-09-29T08:40:37;96342.38;;;9.52;100.00
4735;BME280;2381;50.676;12.612;2022-09-29T08:43:41;96283.38;;;9.54;100.00
4735;BME280;2381;50.676;12.612;2022-09-29T08:46:50;96255.66;;;9.58;100.00
4735;BME280;2381;50.676;12.612;2022-09-29T08:50:13;96241.72;;;9.64;100.00
4735;BME280;2381;50.676;12.612;2022-09-29T08:53:19;96221.69;;;9.76;100.00
4735;BME280;2381;50.676;12.612;2022-09-29T08:56:29;96195.75;;;9.93;100.00
4735;BME280;2381;50.676;12.612;2022-09-29T08:59:32;96174.94;;;10.04;100.00
4735;BME280;2381;50.676;12.612;2022-09-29T09:03:07;96139.28;;;10.08;100.00
4735;BME280;2381;50.676;12.612;2022-09-29T09:06:19;96131.19;;;10.10;100.00
4735;BME280;2381;50.676;12.612;2022-09-29T09:09:42;96116.03;;;10.05;100.00
4735;BME280;2381;50.676;12.612;2022-09-29T09:13:00;96106.13;;;10.07;100.00
4735;BME280;2381;50.676;12.612;2022-09-29T09:16:17;96105.69;;;10.10;100.00
4735;BME280;2381;50.676;12.612;2022-09-29T09:19:39;96115.53;;;10.21;100.00
4735;BME280;2381;50.676;12.612;2022-09-29T09:22:54;96094.66;;;10.32;100.00
4735;BME280;2381;50.676;12.612;2022-09-29T09:26:00;96086.41;;;10.53;100.00
4735;BME280;2381;50.676;12.612;2022-09-29T09:29:08;96052.78;;;10.55;100.00
4735;BME280;2381;50.676;12.612;2022-09-29T09:32:15;96036.69;;;10.70;100.00
4735;BME280;2381;50.676;12.612;2022-09-29T09:35:34;96017.41;;;10.76;100.00
4735;BME280;2381;50.676;12.612;2022-09-29T09:38:54;96024.34;;;10.88;100.00
4735;BME280;2381;50.676;12.612;2022-09-29T09:42:02;96029.28;;;11.03;100.00
4735;BME280;2381;50.676;12.612;2022-09-29T09:45:13;96014.22;;;11.10;100.00
4735;BME280;2381;50.676;12.612;2022-09-29T09:48:22;95999.69;;;11.43;100.00
4735;BME280;2381;50.676;12.612;2022-09-29T09:51:39;95988.94;;;11.63;100.00
4735;BME280;2381;50.676;12.612;2022-09-29T09:54:49;95988.94;;;11.63;100.00
4735;BME280;2381;50.676;12.612;2022-09-29T09:58:06;95985.75;;;11.54;100.00
4735;BME280;2381;50.676;12.612;2022-09-29T10:01:11;95983.53;;;11.58;100.00
4735;BME280;2381;50.676;12.612;2022-09-29T10:04:14;95986.75;;;11.60;100.00
4735;BME280;2381;50.676;12.612;2022-09-29T10:07:21;95988.13;;;11.62;100.00
4735;BME280;2381;50.676;12.612;2022-09-29T10:10:27;95983.34;;;11.53;100.00
4735;BME280;2381;50.676;12.612;2022-09-29T10:13:31;95985.41;;;11.51;100.00
4735;BME280;2381;50.676;12.612;2022-09-29T10:16:36;95990.09;;;11.49;100.00
4735;BME280;2381;50.676;12.612;2022-09-29T10:19:55;95989.22;;;11.73;100.00
4735;BME280;2381;50.676;12.612;2022-09-29T10:23:24;95988.72;;;11.64;100.00
4735;BME280;2381;50.676;12.612;2022-09-29T10:26:32;95988.81;;;11.87;100.00
4735;BME280;2381;50.676;12.612;2022-09-29T10:29:37;96000.19;;;11.88;100.00
4735;BME280;2381;50.676;12.612;2022-09-29T10:32:43;96004.25;;;11.72;100.00
4735;BME280;2381;50.676;12.612;2022-09-29T10:35:48;96002.38;;;11.91;100.00
4735;BME280;2381;50.676;12.612;2022-09-29T10:38:56;95995.56;;;11.83;100.00
4735;BME280;2381;50.676;12.612;2022-09-29T10:42:19;95997.28;;;11.78;100.00
4735;BME280;2381;50.676;12.612;2022-09-29T10:45:24;95989.84;;;11.86;100.00
4735;BME280;2381;50.676;12.612;2022-09-29T10:48:28;95997.91;;;11.91;100.00
4735;BME280;2381;50.676;12.612;2022-09-29T10:51:31;95995.50;;;11.90;100.00
4735;BME280;2381;50.676;12.612;2022-09-29T10:54:39;96002.81;;;11.88;100.00
4735;BME280;2381;50.676;12.612;2022-09-29T10:57:55;96008.38;;;11.98;100.00
4735;BME280;2381;50.676;12.612;2022-09-29T11:01:05;96015.75;;;12.07;100.00
4735;BME280;2381;50.676;12.612;2022-09-29T11:04:16;96014.50;;;12.10;100.00
4735;BME280;2381;50.676;12.612;2022-09-29T11:07:21;96020.34;;;12.12;100.00
4735;BME280;2381;50.676;12.612;2022-09-29T11:10:31;96028.84;;;12.14;100.00
4735;BME280;2381;50.676;12.612;2022-09-29T11:13:37;96034.75;;;11.98;100.00
4735;BME280;2381;50.676;12.612;2022-09-29T11:16:51;96032.63;;;11.88;100.00
4735;BME280;2381;50.676;12.612;2022-09-29T11:19:58;96035.31;;;12.18;100.00
4735;BME280;2381;50.676;12.612;2022-09-29T11:23:14;96029.38;;;12.34;100.00
4735;BME280;2381;50.676;12.612;2022-09-29T11:26:30;96030.03;;;12.29;100.00
4735;BME280;2381;50.676;12.612;2022-09-29T11:29:42;96040.84;;;12.28;100.00
4735;BME280;2381;50.676;12.612;2022-09-29T11:33:05;96032.06;;;12.45;100.00
4735;BME280;2381;50.676;12.612;2022-09-29T11:36:19;96035.31;;;12.59;100.00
4735;BME280;2381;50.676;12.612;2022-09-29T11:39:37;96033.97;;;12.68;100.00
4735;BME280;2381;50.676;12.612;2022-09-29T11:43:08;96038.63;;;12.54;100.00
4735;BME280;2381;50.676;12.612;2022-09-29T11:46:39;96043.88;;;12.43;100.00
4735;BME280;2381;50.676;12.612;2022-09-29T11:50:08;96052.25;;;12.40;100.00
4735;BME280;2381;50.676;12.612;2022-09-29T11:53:30;96050.75;;;12.44;100.00
4735;BME280;2381;50.676;12.612;2022-09-29T11:56:42;96057.53;;;12.40;100.00
4735;BME280;2381;50.676;12.612;2022-09-29T12:00:02;96057.22;;;12.48;100.00
4735;BME280;2381;50.676;12.612;2022-09-29T12:03:30;96052.16;;;12.46;100.00
4735;BME280;2381;50.676;12.612;2022-09-29T12:06:51;96052.63;;;12.55;100.00
4735;BME280;2381;50.676;12.612;2022-09-29T12:10:07;96059.19;;;12.52;100.00
4735;BME280;2381;50.676;12.612;2022-09-29T12:13:34;96051.72;;;12.61;100.00
4735;BME280;2381;50.676;12.612;2022-09-29T12:16:48;96061.59;;;12.54;100.00
4735;BME280;2381;50.676;12.612;2022-09-29T12:20:00;96056.31;;;12.54;100.00
4735;BME280;2381;50.676;12.612;2022-09-29T12:23:09;96049.41;;;12.53;100.00
4735;BME280;2381;50.676;12.612;2022-09-29T12:26:16;96051.03;;;12.54;100.00
4735;BME280;2381;50.676;12.612;2022-09-29T12:29:30;96054.69;;;12.53;100.00
4735;BME280;2381;50.676;12.612;2022-09-29T12:32:38;96051.47;;;12.51;100.00
4735;BME280;2381;50.676;12.612;2022-09-29T12:35:47;96050.91;;;12.49;100.00
4735;BME280;2381;50.676;12.612;2022-09-29T12:38:51;96063.66;;;12.52;100.00
4735;BME280;2381;50.676;12.612;2022-09-29T12:42:06;96076.72;;;12.47;100.00
4735;BME280;2381;50.676;12.612;2022-09-29T12:45:21;96093.72;;;12.51;100.00
4735;BME280;2381;50.676;12.612;2022-09-29T12:48:43;96092.56;;;12.47;100.00
4735;BME280;2381;50.676;12.612;2022-09-29T12:51:49;96100.78;;;12.09;100.00
4735;BME280;2381;50.676;12.612;2022-09-29T12:54:54;96094.69;;;12.09;100.00
4735;BME280;2381;50.676;12.612;2022-09-29T12:58:03;96092.19;;;11.96;100.00
4735;BME280;2381;50.676;12.612;2022-09-29T13:01:20;96102.34;;;11.81;100.00
4735;BME280;2381;50.676;12.612;2022-09-29T13:04:52;96085.25;;;11.65;100.00
4735;BME280;2381;50.676;12.612;2022-09-29T13:08:16;96075.56;;;11.41;100.00
4735;BME280;2381;50.676;12.612;2022-09-29T13:11:54;96062.06;;;11.31;100.00
4735;BME280;2381;50.676;12.612;2022-09-29T13:15:25;96053.94;;;11.15;100.00
4735;BME280;2381;50.676;12.612;2022-09-29T13:22:45;96035.59;;;11.02;100.00
4735;BME280;2381;50.676;12.612;2022-09-29T13:26:01;96045.41;;;11.13;100.00
4735;BME280;2381;50.676;12.612;2022-09-29T13:29:11;96045.31;;;11.26;100.00
4735;BME280;2381;50.676;12.612;2022-09-29T13:32:15;96035.34;;;11.46;100.00
4735;BME280;2381;50.676;12.612;2022-09-29T13:35:21;96048.72;;;11.69;100.00
4735;BME280;2381;50.676;12.612;2022-09-29T13:38:28;96052.66;;;11.60;100.00
4735;BME280;2381;50.676;12.612;2022-09-29T13:41:34;96069.22;;;11.67;100.00
4735;BME280;2381;50.676;12.612;2022-09-29T13:44:39;96072.00;;;11.72;100.00
4735;BME280;2381;50.676;12.612;2022-09-29T13:47:45;96067.31;;;11.92;100.00
4735;BME280;2381;50.676;12.612;2022-09-29T13:50:51;96068.91;;;11.93;100.00
4735;BME280;2381;50.676;12.612;2022-09-29T13:57:51;96095.41;;;12.16;100.00
4735;BME280;2381;50.676;12.612;2022-09-29T14:00:56;96103.47;;;12.21;100.00
4735;BME280;2381;50.676;12.612;2022-09-29T14:07:42;96111.84;;;12.18;100.00
4735;BME280;2381;50.676;12.612;2022-09-29T14:10:48;96118.75;;;12.01;100.00
4735;BME280;2381;50.676;12.612;2022-09-29T14:13:56;96110.91;;;11.94;100.00
4735;BME280;2381;50.676;12.612;2022-09-29T14:17:04;96107.81;;;11.97;100.00
4735;BME280;2381;50.676;12.612;2022-09-29T14:20:15;96120.06;;;11.92;100.00
4735;BME280;2381;50.676;12.612;2022-09-29T14:23:46;96119.97;;;11.98;100.00
4735;BME280;2381;50.676;12.612;2022-09-29T14:26:52;96119.31;;;12.03;100.00
4735;BME280;2381;50.676;12.612;2022-09-29T14:30:06;96129.75;;;11.98;100.00
4735;BME280;2381;50.676;12.612;2022-09-29T14:33:16;96125.72;;;11.95;100.00
4735;BME280;2381;50.676;12.612;2022-09-29T14:36:23;96118.91;;;11.88;100.00
4735;BME280;2381;50.676;12.612;2022-09-29T14:39:28;96139.13;;;11.94;100.00
4735;BME280;2381;50.676;12.612;2022-09-29T14:42:33;96122.63;;;11.98;100.00
4735;BME280;2381;50.676;12.612;2022-09-29T14:49:35;96109.22;;;12.00;100.00
4735;BME280;2381;50.676;12.612;2022-09-29T14:53:08;96098.59;;;12.06;100.00
4735;BME280;2381;50.676;12.612;2022-09-29T14:56:24;96102.03;;;12.07;100.00
4735;BME280;2381;50.676;12.612;2022-09-29T14:59:44;96097.56;;;12.07;100.00
4735;BME280;2381;50.676;12.612;2022-09-29T15:02:54;96099.53;;;12.12;100.00
4735;BME280;2381;50.676;12.612;2022-09-29T15:06:13;96098.00;;;12.04;100.00
4735;BME280;2381;50.676;12.612;2022-09-29T15:09:18;96115.72;;;12.15;100.00
4735;BME280;2381;50.676;12.612;2022-09-29T15:12:24;96109.22;;;12.18;100.00
4735;BME280;2381;50.676;12.612;2022-09-29T15:15:30;96125.03;;;12.18;100.00
4735;BME280;2381;50.676;12.612;2022-09-29T15:18:54;96121.22;;;12.14;100.00
4735;BME280;2381;50.676;12.612;2022-09-29T15:22:10;96125.13;;;12.11;100.00
4735;BME280;2381;50.676;12.612;2022-09-29T15:25:23;96128.09;;;12.15;100.00
4735;BME280;2381;50.676;12.612;2022-09-29T15:28:31;96129.97;;;12.14;100.00
4735;BME280;2381;50.676;12.612;2022-09-29T15:31:35;96135.44;;;12.13;100.00
4735;BME280;2381;50.676;12.612;2022-09-29T15:34:39;96155.97;;;12.11;100.00
4735;BME280;2381;50.676;12.612;2022-09-29T15:37:57;96146.66;;;12.08;100.00
4735;BME280;2381;50.676;12.612;2022-09-29T15:41:12;96159.28;;;12.06;100.00
4735;BME280;2381;50.676;12.612;2022-09-29T15:44:17;96151.56;;;12.05;100.00
4735;BME280;2381;50.676;12.612;2022-09-29T15:47:26;96154.53;;;11.97;100.00
4735;BME280;2381;50.676;12.612;2022-09-29T15:50:32;96144.97;;;11.96;100.00
4735;BME280;2381;50.676;12.612;2022-09-29T15:53:36;96153.91;;;11.95;100.00
4735;BME280;2381;50.676;12.612;2022-09-29T15:56:40;96148.28;;;11.91;100.00
4735;BME280;2381;50.676;12.612;2022-09-29T16:00:01;96150.97;;;11.85;100.00
4735;BME280;2381;50.676;12.612;2022-09-29T16:03:16;96131.63;;;11.73;100.00
4735;BME280;2381;50.676;12.612;2022-09-29T16:06:27;96128.88;;;11.86;100.00
4735;BME280;2381;50.676;12.612;2022-09-29T16:09:34;96116.63;;;11.73;100.00
4735;BME280;2381;50.676;12.612;2022-09-29T16:12:44;96118.03;;;11.76;100.00
4735;BME280;2381;50.676;12.612;2022-09-29T16:15:49;96113.75;;;11.75;100.00
4735;BME280;2381;50.676;12.612;2022-09-29T16:18:58;96117.00;;;11.77;100.00
4735;BME280;2381;50.676;12.612;2022-09-29T16:22:04;96116.41;;;11.57;100.00
4735;BME280;2381;50.676;12.612;2022-09-29T16:25:19;96131.88;;;11.47;100.00
4735;BME280;2381;50.676;12.612;2022-09-29T16:28:26;96132.47;;;11.49;100.00
4735;BME280;2381;50.676;12.612;2022-09-29T16:31:30;96138.91;;;11.53;100.00
4735;BME280;2381;50.676;12.612;2022-09-29T16:34:33;96145.19;;;11.52;100.00
4735;BME280;2381;50.676;12.612;2022-09-29T16:37:38;96140.44;;;11.42;100.00
4735;BME280;2381;50.676;12.612;2022-09-29T16:40:41;96147.84;;;11.52;100.00
4735;BME280;2381;50.676;12.612;2022-09-29T16:43:44;96151.72;;;11.49;100.00
4735;BME280;2381;50.676;12.612;2022-09-29T16:46:50;96165.56;;;11.45;100.00
4735;BME280;2381;50.676;12.612;2022-09-29T16:49:55;96172.13;;;11.36;100.00
4735;BME280;2381;50.676;12.612;2022-09-29T16:53:00;96179.88;;;11.00;100.00
4735;BME280;2381;50.676;12.612;2022-09-29T16:56:07;96166.91;;;10.98;100.00
4735;BME280;2381;50.676;12.612;2022-09-29T16:59:12;96168.66;;;11.11;100.00
4735;BME280;2381;50.676;12.612;2022-09-29T17:02:17;96171.72;;;11.08;100.00
4735;BME280;2381;50.676;12.612;2022-09-29T17:05:20;96174.09;;;10.91;100.00